Time;durP1;ratioP1;P1;durP2;ratioP2;P2;SDS_P1;SDS_P2;PMS_P1;PMS_P2;Temp;Humidity;BMP_temperature;BMP_pressure;BME280_temperature;BME280_humidity;BME280_pressure;Samples;Min_cycle;Max_cycle;Signal;HPM_P1;HPM_P2
2022/12/09 00:00:56;;;;;;;;;;;-2.10;99.90;;;-3.14;100.00;96234.72;5051724;28;19943;-42
2022/12/09 00:03:22;;;;;;;;;;;-2.10;99.90;;;-3.17;100.00;96221.84;5034772;28;20368;-42
2022/12/09 00:05:49;;;;;;;;;;;-2.10;99.90;;;-3.17;100.00;96227.00;5039015;28;19924;-42
2022/12/09 00:08:15;;;;;;;;;;;-2.10;99.90;;;-3.15;100.00;96222.69;5046636;28;19943;-42
2022/12/09 00:10:43;;;;;;;;;;;-2.10;99.90;;;-3.21;100.00;96219.25;5052626;28;19913;-42
2022/12/09 00:13:09;;;;;;;;;;;-2.10;99.90;;;-3.20;100.00;96215.81;5042531;28;22204;-42
2022/12/09 00:15:35;;;;;;;;;;;-2.10;99.90;;;-3.23;100.00;96213.25;5026304;28;19920;-42
2022/12/09 00:18:01;;;;;;;;;;;-2.20;99.90;;;-3.27;100.00;96210.69;5024350;28;19920;-42
2022/12/09 00:20:26;;;;;;;;;;;-2.20;99.90;;;-3.26;100.00;96209.81;5023933;28;19982;-42
2022/12/09 00:22:52;;;;;;;;;;;-2.20;99.90;;;-3.26;100.00;96207.25;5026104;28;20402;-42
2022/12/09 00:25:17;;;;;;;;;;;-2.20;99.90;;;-3.43;100.00;96177.19;5031284;28;21334;-43
2022/12/09 00:27:43;;;;;;;;;;;-2.20;99.90;;;-3.28;100.00;96200.38;5054082;28;19924;-42
2022/12/09 00:30:09;;;;;;;;;;;-2.20;99.90;;;-3.29;100.00;96204.66;5053217;28;19960;-42
2022/12/09 00:32:34;;;;;;;;;;;-2.20;99.90;;;-3.30;100.00;96197.81;5038459;28;20280;-42
2022/12/09 00:35:00;;;;;;;;;;;-2.20;99.90;;;-3.30;100.00;96200.38;5045812;28;20015;-42
2022/12/09 00:37:26;;;;;;;;;;;-2.20;99.90;;;-3.31;100.00;96200.38;5051281;28;20359;-42
2022/12/09 00:39:51;;;;;;;;;;;-2.20;99.90;;;-3.31;100.00;96202.97;5053689;28;20065;-42
2022/12/09 00:42:17;;;;;;;;;;;-2.20;99.90;;;-3.46;100.00;96167.75;5052803;28;20351;-42
2022/12/09 00:44:43;;;;;;;;;;;-2.20;99.90;;;-3.32;100.00;96194.38;5051310;28;20350;-42
2022/12/09 00:47:08;;;;;;;;;;;-2.20;99.90;;;-3.37;100.00;96187.50;5050865;28;19955;-42
2022/12/09 00:49:34;;;;;;;;;;;-2.20;99.90;;;-3.34;100.00;96201.25;5050179;28;19924;-41
2022/12/09 00:51:59;;;;;;;;;;;-2.20;99.90;;;-3.34;100.00;96200.38;5053201;28;19916;-42
2022/12/09 00:54:25;;;;;;;;;;;-2.30;99.90;;;-3.41;100.00;96183.19;5047090;28;20322;-42
2022/12/09 00:56:51;;;;;;;;;;;-2.30;99.90;;;-3.35;100.00;96193.53;5046881;28;19963;-42
2022/12/09 00:59:16;;;;;;;;;;;-2.30;99.90;;;-3.37;100.00;96193.53;5052972;28;20123;-42
2022/12/09 01:01:42;;;;;;;;;;;-2.30;99.90;;;-3.39;100.00;96202.97;5047416;28;19928;-42
2022/12/09 01:04:07;;;;;;;;;;;-2.30;99.90;;;-3.39;100.00;96197.81;5050709;28;19983;-42
2022/12/09 01:06:33;;;;;;;;;;;-2.30;99.90;;;-3.39;100.00;96191.78;5045866;28;20345;-43
2022/12/09 01:08:59;;;;;;;;;;;-2.30;99.90;;;-3.39;100.00;96200.41;5046525;28;19912;-42
2022/12/09 01:11:26;;;;;;;;;;;-2.30;99.90;;;-3.41;100.00;96199.56;5050498;28;20584;-42
2022/12/09 01:13:53;;;;;;;;;;;-2.30;99.90;;;-3.42;100.00;96195.25;5047444;28;19926;-42
2022/12/09 01:16:26;;;;;;;;;;;-2.30;99.90;;;-3.44;100.00;96201.28;5029686;28;19920;-42
2022/12/09 01:18:53;;;;;;;;;;;-2.30;99.90;;;-3.43;100.00;96201.25;5028832;28;20394;-43
2022/12/09 01:21:18;;;;;;;;;;;-2.40;99.90;;;-3.50;100.00;96196.97;5044201;28;20382;-42
2022/12/09 01:23:44;;;;;;;;;;;-2.40;99.90;;;-3.47;100.00;96199.53;5025871;28;20424;-44
2022/12/09 01:26:10;;;;;;;;;;;-2.40;99.90;;;-3.47;100.00;96195.22;5031937;28;19921;-42
2022/12/09 01:28:37;;;;;;;;;;;-2.40;99.90;;;-3.51;100.00;96187.53;5030321;28;19921;-43
2022/12/09 01:31:16;;;;;;;;;;;-2.40;99.90;;;-3.52;100.00;96185.78;5026814;28;19970;-42
2022/12/09 01:33:42;;;;;;;;;;;-2.40;99.90;;;-3.51;100.00;96192.69;5030357;28;19920;-42
2022/12/09 01:36:10;;;;;;;;;;;-2.40;99.90;;;-3.69;100.00;96166.06;5035868;28;19924;-42
2022/12/09 01:38:36;;;;;;;;;;;-2.40;99.90;;;-3.54;100.00;96197.81;5044549;28;19912;-42
2022/12/09 01:41:02;;;;;;;;;;;-2.40;99.90;;;-3.58;100.00;96188.41;5047437;28;20372;-42
2022/12/09 01:43:28;;;;;;;;;;;-2.50;99.90;;;-3.57;100.00;96196.13;5044212;28;19974;-42
2022/12/09 01:45:54;;;;;;;;;;;-2.50;99.90;;;-3.55;100.00;96190.94;5045533;28;20150;-43
2022/12/09 01:48:22;;;;;;;;;;;-2.50;99.90;;;-3.64;100.00;96186.69;5049261;28;19912;-42
2022/12/09 01:50:53;;;;;;;;;;;-2.50;99.90;;;-3.66;100.00;96184.09;5027962;28;20214;-42
2022/12/09 01:53:21;;;;;;;;;;;-2.50;99.90;;;-3.65;100.00;96182.38;5062823;28;20179;-42
2022/12/09 01:55:47;;;;;;;;;;;-2.60;99.90;;;-3.70;100.00;96176.38;5047017;28;19959;-43
2022/12/09 01:58:13;;;;;;;;;;;-2.60;99.90;;;-3.76;100.00;96166.94;5048770;28;20011;-42
2022/12/09 02:00:40;;;;;;;;;;;-2.60;99.90;;;-3.74;100.00;96175.50;5045123;28;20485;-41
2022/12/09 02:03:06;;;;;;;;;;;-2.60;99.90;;;-3.74;100.00;96182.38;5027617;28;19927;-42
2022/12/09 02:05:31;;;;;;;;;;;-2.60;99.90;;;-3.73;100.00;96168.63;5051212;28;19916;-42
2022/12/09 02:07:58;;;;;;;;;;;-2.60;99.90;;;-3.75;100.00;96160.03;5035836;28;20362;-42
2022/12/09 02:10:24;;;;;;;;;;;-2.60;99.90;;;-3.80;100.00;96141.16;5053290;28;19985;-42
2022/12/09 02:13:18;;;;;;;;;;;-2.60;99.90;;;-3.74;100.00;96147.16;5035077;28;20205;-42
2022/12/09 02:15:51;;;;;;;;;;;-2.60;99.90;;;-3.78;100.00;96131.72;5029174;28;19916;-42
2022/12/09 02:18:35;;;;;;;;;;;-2.60;99.90;;;-3.73;100.00;96137.72;5025662;28;23021;-42
2022/12/09 02:21:08;;;;;;;;;;;-2.60;99.90;;;-3.83;100.00;96130.00;5031920;28;19920;-42
2022/12/09 02:23:45;;;;;;;;;;;-2.70;99.90;;;-3.88;100.00;96133.44;5026841;28;19931;-42
2022/12/09 02:26:37;;;;;;;;;;;-2.80;99.90;;;-3.94;100.00;96136.88;5020049;28;19924;-41
2022/12/09 02:29:18;;;;;;;;;;;-2.80;99.90;;;-3.94;100.00;96134.31;5030632;28;19966;-41
2022/12/09 02:32:02;;;;;;;;;;;-2.80;99.90;;;-3.95;100.00;96139.47;5026534;28;19916;-41
2022/12/09 02:34:31;;;;;;;;;;;-2.80;99.90;;;-3.99;100.00;96142.91;5049554;28;19951;-42
2022/12/09 02:37:20;;;;;;;;;;;-2.80;99.90;;;-3.99;100.00;96142.91;5026849;28;20011;-43
2022/12/09 02:39:52;;;;;;;;;;;-2.80;99.90;;;-3.98;100.00;96148.06;5029260;28;19967;-42
2022/12/09 02:42:20;;;;;;;;;;;-2.80;99.90;;;-3.99;100.00;96130.03;5007127;28;19920;-42
2022/12/09 02:44:47;;;;;;;;;;;-2.80;99.90;;;-3.99;100.00;96127.44;5016300;28;19920;-41
2022/12/09 02:47:15;;;;;;;;;;;-2.80;99.90;;;-4.00;100.00;96131.75;5014343;28;19920;-41
2022/12/09 02:49:41;;;;;;;;;;;-2.80;99.90;;;-3.98;100.00;96135.19;5025124;28;19951;-42
2022/12/09 02:52:07;;;;;;;;;;;-2.80;99.90;;;-3.99;100.00;96127.44;5023358;28;19920;-42
2022/12/09 02:54:35;;;;;;;;;;;-2.80;99.90;;;-4.08;100.00;96102.56;5031327;28;20403;-42
2022/12/09 02:57:05;;;;;;;;;;;-2.80;99.90;;;-4.05;100.00;96113.72;5028533;28;19920;-42
2022/12/09 02:59:31;;;;;;;;;;;-2.90;99.90;;;-4.10;100.00;96101.72;5011887;28;19923;-42
2022/12/09 03:02:13;;;;;;;;;;;-2.90;99.90;;;-4.07;100.00;96109.44;5034715;28;20166;-43
2022/12/09 03:04:41;;;;;;;;;;;-2.90;99.90;;;-4.09;100.00;96098.25;5036554;28;19931;-44
2022/12/09 03:07:43;;;;;;;;;;;-2.90;99.90;;;-4.29;100.00;96067.38;5013910;28;19916;-42
2022/12/09 03:10:31;;;;;;;;;;;-2.90;99.90;;;-4.08;100.00;96093.09;5000315;28;19978;-42
2022/12/09 03:13:02;;;;;;;;;;;-2.90;99.90;;;-4.07;100.00;96092.25;5020369;28;19920;-42
2022/12/09 03:15:30;;;;;;;;;;;-2.90;99.90;;;-4.07;100.00;96094.00;5064136;28;19913;-42
2022/12/09 03:17:57;;;;;;;;;;;-2.90;99.90;;;-4.07;100.00;96088.84;5026082;28;19916;-42
2022/12/09 03:20:27;;;;;;;;;;;-2.90;99.90;;;-4.15;100.00;96075.09;5012848;28;19916;-42
2022/12/09 03:22:56;;;;;;;;;;;-2.90;99.90;;;-4.09;100.00;96083.69;5016072;28;19920;-42
2022/12/09 03:25:29;;;;;;;;;;;-2.90;99.90;;;-4.11;100.00;96081.94;5025144;28;19965;-42
2022/12/09 03:28:02;;;;;;;;;;;-2.90;99.90;;;-4.09;100.00;96081.09;5047761;28;19920;-42
2022/12/09 03:30:30;;;;;;;;;;;-2.90;99.90;;;-4.10;100.00;96075.97;5019953;28;19912;-42
2022/12/09 03:32:57;;;;;;;;;;;-3.00;99.90;;;-4.12;100.00;96075.94;5047874;28;19916;-42
2022/12/09 03:35:26;;;;;;;;;;;-2.90;99.90;;;-4.10;100.00;96074.22;5022616;28;19916;-42
2022/12/09 03:37:52;;;;;;;;;;;-3.00;99.90;;;-4.12;100.00;96081.09;5029608;28;19921;-42
2022/12/09 03:40:22;;;;;;;;;;;-2.90;99.90;;;-4.12;100.00;96077.69;5038559;28;20438;-42
2022/12/09 03:42:53;;;;;;;;;;;-2.90;99.90;;;-4.09;100.00;96078.53;5045787;28;19916;-42
2022/12/09 03:45:19;;;;;;;;;;;-2.90;99.90;;;-4.29;100.00;96046.78;5039926;28;19924;-42
2022/12/09 03:47:45;;;;;;;;;;;-2.90;99.90;;;-4.13;100.00;96063.94;5043413;28;19920;-42
2022/12/09 03:50:11;;;;;;;;;;;-2.90;99.90;;;-4.06;100.00;96062.22;5045551;28;19920;-42
2022/12/09 03:52:47;;;;;;;;;;;-2.90;99.90;;;-4.11;100.00;96048.47;5026744;28;20425;-42
2022/12/09 03:55:23;;;;;;;;;;;-2.90;99.90;;;-4.17;100.00;96049.34;5024584;28;20011;-42
2022/12/09 03:57:52;;;;;;;;;;;-2.90;99.90;;;-4.01;100.00;96070.78;5043326;28;19985;-43
2022/12/09 04:00:17;;;;;;;;;;;-2.90;99.90;;;-4.01;100.00;96063.06;5040716;28;19919;-42
2022/12/09 04:02:43;;;;;;;;;;;-2.90;99.90;;;-3.97;100.00;96074.22;5029634;28;19921;-42
2022/12/09 04:05:09;;;;;;;;;;;-2.90;99.90;;;-3.98;100.00;96070.78;5047014;28;20019;-42
2022/12/09 04:07:35;;;;;;;;;;;-2.80;99.90;;;-3.94;100.00;96072.50;5031158;28;19920;-42
2022/12/09 04:10:00;;;;;;;;;;;-2.80;99.90;;;-3.95;100.00;96075.06;5022489;28;19969;-43
2022/12/09 04:12:26;;;;;;;;;;;-2.80;99.90;;;-3.93;100.00;96075.94;5025008;28;20457;-43
2022/12/09 04:14:52;;;;;;;;;;;-2.80;99.90;;;-3.91;100.00;96075.06;5030087;28;20416;-43
2022/12/09 04:17:17;;;;;;;;;;;-2.70;99.90;;;-3.95;100.00;96059.63;5037927;28;20015;-42
2022/12/09 04:19:43;;;;;;;;;;;-2.70;99.90;;;-3.90;100.00;96065.63;5025759;28;20485;-42
2022/12/09 04:22:08;;;;;;;;;;;-2.80;99.90;;;-3.92;100.00;96051.91;5027021;28;20192;-42
2022/12/09 04:24:34;;;;;;;;;;;-2.70;99.90;;;-3.94;100.00;96057.03;5027173;28;19929;-43
2022/12/09 04:27:00;;;;;;;;;;;-2.80;99.90;;;-3.95;100.00;96047.59;5033304;28;20272;-42
2022/12/09 04:29:25;;;;;;;;;;;-2.80;99.90;;;-3.96;100.00;96056.19;5055902;22;20380;-51
2022/12/09 04:31:51;;;;;;;;;;;-2.80;99.90;;;-3.98;100.00;96044.16;5045277;28;19923;-50
2022/12/09 04:34:16;;;;;;;;;;;-2.80;99.90;;;-3.98;100.00;96041.59;5043797;28;20678;-52
2022/12/09 04:36:42;;;;;;;;;;;-2.80;99.90;;;-3.97;100.00;96026.13;5036939;28;20566;-50
2022/12/09 04:39:08;;;;;;;;;;;-2.80;99.90;;;-3.95;100.00;96026.13;5047630;28;19921;-51
2022/12/09 04:41:34;;;;;;;;;;;-2.80;99.90;;;-3.97;100.00;96017.56;5043333;28;20425;-54
2022/12/09 04:44:00;;;;;;;;;;;-2.80;99.90;;;-3.97;100.00;96012.41;5031316;28;20383;-52
2022/12/09 04:46:26;;;;;;;;;;;-2.80;99.90;;;-3.94;100.00;96017.56;5038298;28;19935;-53
2022/12/09 04:48:51;;;;;;;;;;;-2.80;99.90;;;-3.94;100.00;96013.25;5031740;28;19916;-51
2022/12/09 04:51:17;;;;;;;;;;;-2.80;99.90;;;-3.92;100.00;96015.84;5049109;28;20288;-55
2022/12/09 04:53:43;;;;;;;;;;;-2.80;99.90;;;-3.97;100.00;96012.41;5043010;28;19966;-51
2022/12/09 04:56:14;;;;;;;;;;;-2.80;99.90;;;-3.93;100.00;96014.13;5040622;28;19931;-53
2022/12/09 04:58:40;;;;;;;;;;;-2.80;99.90;;;-3.92;100.00;96010.69;5045779;28;19909;-54
2022/12/09 05:01:11;;;;;;;;;;;-2.80;99.90;;;-3.92;100.00;96001.22;5051358;28;19971;-51
2022/12/09 05:03:37;;;;;;;;;;;-2.80;99.90;;;-3.89;100.00;96001.22;5049822;28;19944;-52
2022/12/09 05:06:07;;;;;;;;;;;-2.70;99.90;;;-3.90;100.00;95999.50;5034736;28;20007;-54
2022/12/09 05:08:33;;;;;;;;;;;-2.80;99.90;;;-3.91;100.00;95992.66;5047336;28;19928;-54
2022/12/09 05:10:58;;;;;;;;;;;-2.70;99.90;;;-3.87;100.00;95991.78;5044914;28;19920;-52
2022/12/09 05:13:26;;;;;;;;;;;-2.70;99.90;;;-3.87;100.00;95988.34;5047604;28;19916;-51
2022/12/09 05:15:53;;;;;;;;;;;-2.70;99.90;;;-3.86;100.00;95990.94;5043726;28;19913;-53
2022/12/09 05:18:19;;;;;;;;;;;-2.70;99.90;;;-3.92;100.00;95975.47;5034296;28;20946;-49
2022/12/09 05:20:44;;;;;;;;;;;-2.70;99.90;;;-3.88;100.00;95990.06;5039719;28;20011;-49
2022/12/09 05:23:10;;;;;;;;;;;-2.70;99.90;;;-3.89;100.00;95996.09;5049650;28;20400;-53
2022/12/09 05:25:36;;;;;;;;;;;-2.70;99.90;;;-3.86;100.00;95998.66;5047975;28;19956;-57
2022/12/09 05:28:01;;;;;;;;;;;-2.70;99.90;;;-3.81;100.00;96005.50;5044903;28;19948;-55
2022/12/09 05:30:27;;;;;;;;;;;-2.70;99.90;;;-3.79;100.00;95996.06;5047129;28;19966;-54
2022/12/09 05:32:53;;;;;;;;;;;-2.70;99.90;;;-3.89;100.00;95966.91;5043199;28;20300;-55
2022/12/09 05:35:18;;;;;;;;;;;-2.60;99.90;;;-3.73;100.00;95990.88;5048253;28;20582;-55
2022/12/09 05:37:44;;;;;;;;;;;-2.60;99.90;;;-3.72;100.00;95983.13;5047062;28;19975;-56
2022/12/09 05:40:10;;;;;;;;;;;-2.60;99.90;;;-3.68;100.00;95973.66;5037849;28;19923;-57
2022/12/09 05:42:36;;;;;;;;;;;-2.50;99.90;;;-3.67;100.00;95971.09;5046481;28;19917;-57
2022/12/09 05:45:02;;;;;;;;;;;-2.50;99.90;;;-3.62;100.00;95972.78;5038798;28;19927;-54
2022/12/09 05:47:30;;;;;;;;;;;-2.50;99.90;;;-3.68;100.00;95966.81;5045529;28;19916;-55
2022/12/09 05:49:56;;;;;;;;;;;-2.50;99.90;;;-3.65;100.00;95969.38;5040142;28;20449;-56
2022/12/09 05:52:22;;;;;;;;;;;-2.50;99.90;;;-3.67;100.00;95973.66;5034292;28;20035;-57
2022/12/09 05:54:47;;;;;;;;;;;-2.50;99.90;;;-3.67;100.00;95968.50;5027632;28;20380;-58
2022/12/09 05:57:13;;;;;;;;;;;-2.50;99.90;;;-3.69;100.00;95965.09;5050109;28;19916;-55
2022/12/09 05:59:39;;;;;;;;;;;-2.50;99.90;;;-3.70;100.00;95970.25;5050941;28;20373;-57
2022/12/09 06:02:04;;;;;;;;;;;-2.50;99.90;;;-3.68;100.00;95958.22;5054800;28;19927;-55
2022/12/09 06:04:30;;;;;;;;;;;-2.60;99.90;;;-3.69;100.00;95962.50;5054079;28;19919;-56
2022/12/09 06:06:55;;;;;;;;;;;-2.50;99.90;;;-3.66;100.00;95967.66;5053349;28;19969;-55
2022/12/09 06:09:21;;;;;;;;;;;-2.50;99.90;;;-3.65;100.00;95958.22;5047593;28;19916;-57
2022/12/09 06:11:47;;;;;;;;;;;-2.50;99.90;;;-3.63;100.00;95959.06;5032650;28;20390;-54
2022/12/09 06:14:12;;;;;;;;;;;-2.50;99.90;;;-3.57;100.00;95955.59;5055184;28;19912;-53
2022/12/09 06:16:38;;;;;;;;;;;-2.50;99.90;;;-3.54;100.00;95942.69;5061860;28;19927;-57
2022/12/09 06:19:04;;;;;;;;;;;-2.50;99.90;;;-3.57;100.00;95930.69;5048577;28;19955;-56
2022/12/09 06:21:30;;;;;;;;;;;-2.40;99.90;;;-3.66;100.00;95922.97;5054186;28;19920;-57
2022/12/09 06:23:55;;;;;;;;;;;-2.40;99.90;;;-3.51;100.00;95942.69;5052835;28;19913;-56
2022/12/09 06:26:26;;;;;;;;;;;-2.40;99.90;;;-3.47;100.00;95944.38;5059652;28;19924;-56
2022/12/09 06:28:53;;;;;;;;;;;-2.40;99.90;;;-3.45;100.00;95945.22;5052973;28;20455;-56
2022/12/09 06:31:19;;;;;;;;;;;-2.30;99.90;;;-3.45;100.00;95942.63;5058167;28;19916;-56
2022/12/09 06:33:45;;;;;;;;;;;-2.30;99.90;;;-3.44;100.00;95936.63;5061916;28;19966;-57
2022/12/09 06:36:10;;;;;;;;;;;-2.30;99.90;;;-3.41;100.00;95941.78;5054997;28;19967;-56
2022/12/09 06:38:36;;;;;;;;;;;-2.30;99.90;;;-3.46;100.00;95941.78;5058234;28;20184;-56
2022/12/09 06:41:11;;;;;;;;;;;-2.40;99.90;;;-3.44;100.00;95940.94;5040883;28;19974;-56
2022/12/09 06:43:37;;;;;;;;;;;-2.30;99.90;;;-3.39;100.00;95946.91;5057922;28;19921;-55
2022/12/09 06:46:03;;;;;;;;;;;-2.30;99.90;;;-3.36;100.00;95941.75;5060973;28;19916;-56
2022/12/09 06:48:28;;;;;;;;;;;-2.30;99.90;;;-3.36;100.00;95944.31;5056875;28;20439;-55
2022/12/09 06:50:54;;;;;;;;;;;-2.30;99.90;;;-3.33;100.00;95945.16;5058101;28;19916;-56
2022/12/09 06:53:20;;;;;;;;;;;-2.20;99.90;;;-3.34;100.00;95943.47;5060437;28;19916;-55
2022/12/09 06:55:45;;;;;;;;;;;-2.20;99.90;;;-3.27;100.00;95947.72;5059982;28;19913;-56
2022/12/09 06:58:11;;;;;;;;;;;-2.20;99.90;;;-3.22;100.00;95946.81;5058883;28;19955;-55
2022/12/09 07:00:38;;;;;;;;;;;-2.20;99.90;;;-3.19;100.00;95946.81;5058271;28;19921;-57
2022/12/09 07:03:04;;;;;;;;;;;-2.10;99.90;;;-3.20;100.00;95957.97;5058463;28;20240;-56
2022/12/09 07:05:30;;;;;;;;;;;-2.10;99.90;;;-3.17;100.00;95937.34;5058806;28;20464;-56
2022/12/09 07:07:56;;;;;;;;;;;-2.00;99.90;;;-3.08;100.00;95947.59;5058812;28;20400;-57
2022/12/09 07:10:21;;;;;;;;;;;-2.00;99.90;;;-3.09;100.00;95938.13;5059267;28;19919;-58
2022/12/09 07:12:47;;;;;;;;;;;-2.00;99.90;;;-3.04;100.00;95941.53;5059688;28;20166;-57
2022/12/09 07:15:13;;;;;;;;;;;-1.90;99.90;;;-2.95;100.00;95935.44;5061469;28;19912;-57
2022/12/09 07:17:38;;;;;;;;;;;-1.90;99.90;;;-2.89;100.00;95940.53;5058197;28;20440;-56
2022/12/09 07:20:04;;;;;;;;;;;-1.90;99.90;;;-2.86;100.00;95940.53;5061465;28;19916;-57
2022/12/09 07:22:32;;;;;;;;;;;-1.80;99.90;;;-2.89;100.00;95936.25;5040408;28;19916;-57
2022/12/09 07:24:57;;;;;;;;;;;-1.80;99.90;;;-2.86;100.00;95935.38;5059388;28;19920;-56
2022/12/09 07:27:23;;;;;;;;;;;-1.70;99.90;;;-2.86;100.00;95924.22;5060112;28;19994;-57
2022/12/09 07:29:49;;;;;;;;;;;-1.70;99.90;;;-2.84;100.00;95930.22;5057409;28;19936;-56
2022/12/09 07:32:14;;;;;;;;;;;-1.70;99.90;;;-2.77;100.00;95937.03;5059525;28;20027;-57
2022/12/09 07:34:40;;;;;;;;;;;-1.70;99.90;;;-2.84;100.00;95914.72;5055410;28;20316;-56
2022/12/09 07:37:05;;;;;;;;;;;-1.60;99.90;;;-2.66;100.00;95935.19;5059280;28;19916;-56
2022/12/09 07:39:31;;;;;;;;;;;-1.50;99.90;;;-2.60;100.00;95936.88;5057012;28;20044;-57
2022/12/09 07:41:57;;;;;;;;;;;-1.50;99.90;;;-2.55;100.00;95928.25;5060031;28;20429;-58
2022/12/09 07:44:23;;;;;;;;;;;-1.40;99.90;;;-2.51;100.00;95935.09;5060677;28;19916;-57
2022/12/09 07:46:49;;;;;;;;;;;-1.40;99.90;;;-2.47;100.00;95940.22;5060204;28;19924;-58
2022/12/09 07:49:15;;;;;;;;;;;-1.40;99.90;;;-2.43;100.00;95931.56;5055732;28;19912;-57
2022/12/09 07:51:41;;;;;;;;;;;-1.40;99.90;;;-2.33;100.00;95934.03;5057728;28;19923;-58
2022/12/09 07:54:15;;;;;;;;;;;-1.20;99.90;;;-2.25;100.00;95933.13;5055479;28;19928;-57
2022/12/09 07:56:40;;;;;;;;;;;-1.20;99.90;;;-2.14;100.00;95931.25;5055868;28;20371;-57
2022/12/09 07:59:07;;;;;;;;;;;-1.10;99.90;;;-2.06;100.00;95931.16;5060560;28;20260;-58
2022/12/09 08:01:33;;;;;;;;;;;-1.00;99.90;;;-1.97;100.00;95931.09;5060034;28;20221;-58
2022/12/09 08:04:00;;;;;;;;;;;-0.90;99.90;;;-1.87;100.00;95924.06;5053160;28;20383;-58
2022/12/09 08:06:27;;;;;;;;;;;-0.80;99.90;;;-1.80;100.00;95934.31;5057116;28;20347;-58
2022/12/09 08:08:53;;;;;;;;;;;-0.70;99.90;;;-1.73;100.00;95929.94;5058786;28;19920;-58
2022/12/09 08:11:22;;;;;;;;;;;-0.70;99.90;;;-1.66;100.00;95934.16;5055515;28;19984;-58
2022/12/09 08:13:48;;;;;;;;;;;-0.60;99.90;;;-1.52;100.00;95923.66;5054883;28;19920;-58
2022/12/09 08:16:15;;;;;;;;;;;-0.50;99.90;;;-1.47;100.00;95929.63;5056651;28;19920;-58
2022/12/09 08:18:41;;;;;;;;;;;-0.40;99.90;;;-1.42;100.00;95934.72;5058060;28;19916;-58
2022/12/09 08:21:16;;;;;;;;;;;-0.40;99.90;;;-1.30;100.00;95928.53;5060703;28;20174;-58
2022/12/09 08:23:41;;;;;;;;;;;-0.30;99.90;;;-1.20;100.00;95927.53;5056621;28;20483;-58
2022/12/09 08:26:08;;;;;;;;;;;-0.20;99.90;;;-1.11;100.00;95926.50;5055954;28;19924;-59
2022/12/09 08:28:34;;;;;;;;;;;-0.10;99.90;;;-1.07;100.00;95928.19;5057082;28;20028;-58
2022/12/09 08:31:08;;;;;;;;;;;0.00;99.90;;;-0.98;100.00;95921.13;5055296;28;19912;-58
2022/12/09 08:33:34;;;;;;;;;;;0.10;99.90;;;-1.05;100.00;95903.16;5057258;28;19908;-58
2022/12/09 08:36:06;;;;;;;;;;;0.20;99.90;;;-1.01;100.00;95913.41;5057606;28;20001;-58
2022/12/09 08:38:31;;;;;;;;;;;0.20;99.90;;;-0.98;100.00;95910.78;5055905;28;19920;-58
2022/12/09 08:40:57;;;;;;;;;;;0.20;99.90;;;-0.93;100.00;95915.91;5055314;28;20364;-53
2022/12/09 08:43:23;;;;;;;;;;;0.20;99.90;;;-0.94;100.00;95909.00;5057949;28;19912;-59
2022/12/09 08:45:48;;;;;;;;;;;0.20;99.90;;;-0.88;100.00;95914.09;5057068;28;20011;-58
2022/12/09 08:48:14;;;;;;;;;;;0.30;99.90;;;-0.82;100.00;95915.75;5056559;28;19982;-58
2022/12/09 08:50:40;;;;;;;;;;;0.30;99.90;;;-0.84;100.00;95920.94;5057011;28;19912;-58
2022/12/09 08:53:05;;;;;;;;;;;0.30;99.90;;;-0.87;100.00;95909.78;5055007;28;20403;-58
2022/12/09 08:55:31;;;;;;;;;;;0.30;99.90;;;-0.84;100.00;95909.72;5054971;28;19923;-58
2022/12/09 08:57:57;;;;;;;;;;;0.20;99.90;;;-0.83;100.00;95908.84;5057677;28;19950;-58
2022/12/09 09:00:22;;;;;;;;;;;0.20;99.90;;;-0.84;100.00;95907.16;5059237;28;19974;-58
2022/12/09 09:02:48;;;;;;;;;;;0.20;99.90;;;-0.90;100.00;95902.06;5055924;28;20398;-58
2022/12/09 09:05:13;;;;;;;;;;;0.20;99.90;;;-0.97;100.00;95896.97;5056237;28;20364;-58
2022/12/09 09:07:39;;;;;;;;;;;0.20;99.90;;;-0.88;100.00;95911.50;5053734;28;20194;-58
2022/12/09 09:10:06;;;;;;;;;;;0.20;99.90;;;-0.84;100.00;95907.16;5053774;28;19951;-58
2022/12/09 09:12:31;;;;;;;;;;;0.20;99.90;;;-0.84;100.00;95902.81;5057291;28;19919;-58
2022/12/09 09:14:57;;;;;;;;;;;0.20;99.90;;;-0.90;100.00;95894.28;5055149;28;19916;-58
2022/12/09 09:17:23;;;;;;;;;;;0.20;99.90;;;-0.97;100.00;95880.59;5056735;28;19912;-56
2022/12/09 09:19:48;;;;;;;;;;;0.10;99.90;;;-1.04;100.00;95872.09;5053880;28;19986;-58
2022/12/09 09:22:14;;;;;;;;;;;0.10;99.90;;;-0.89;100.00;95896.00;5059549;28;20360;-58
2022/12/09 09:24:40;;;;;;;;;;;0.20;99.90;;;-0.86;100.00;95896.81;5057388;28;19937;-58
2022/12/09 09:27:06;;;;;;;;;;;0.30;99.90;;;-0.77;100.00;95903.56;5056291;28;20027;-58
2022/12/09 09:29:32;;;;;;;;;;;0.30;99.90;;;-0.69;100.00;95906.88;5053883;28;20007;-58
2022/12/09 09:31:57;;;;;;;;;;;0.40;99.90;;;-0.64;100.00;95906.81;5056560;28;19913;-58
2022/12/09 09:34:24;;;;;;;;;;;0.40;99.90;;;-0.51;100.00;95908.28;5056694;28;19982;-58
2022/12/09 09:36:50;;;;;;;;;;;0.50;99.90;;;-0.44;100.00;95903.88;5058990;28;20029;-58
2022/12/09 09:39:16;;;;;;;;;;;0.60;99.90;;;-0.37;100.00;95900.28;5038542;28;20574;-59
2022/12/09 09:41:56;;;;;;;;;;;0.70;99.90;;;-0.32;100.00;95903.66;5054037;28;19992;-58
2022/12/09 09:44:33;;;;;;;;;;;0.70;99.90;;;-0.31;100.00;95896.72;5050194;28;19930;-58
2022/12/09 09:46:59;;;;;;;;;;;0.80;99.90;;;-0.29;100.00;95893.22;5038550;28;19948;-59
2022/12/09 09:49:31;;;;;;;;;;;0.80;99.90;;;-0.32;100.00;95892.41;5053122;28;20415;-58
2022/12/09 09:51:57;;;;;;;;;;;0.80;99.90;;;-0.17;100.00;95888.72;5055758;28;19920;-58
2022/12/09 09:54:23;;;;;;;;;;;0.80;99.90;;;-0.26;100.00;95882.81;5040653;28;19985;-58
2022/12/09 09:57:11;;;;;;;;;;;0.80;99.90;;;-0.16;100.00;95880.91;5054306;28;20367;-58
2022/12/09 09:59:51;;;;;;;;;;;0.90;99.90;;;-0.20;100.00;95880.13;5056125;28;20522;-59
2022/12/09 10:02:26;;;;;;;;;;;0.90;99.90;;;-0.18;100.00;95880.06;5039178;28;19919;-59
2022/12/09 10:05:03;;;;;;;;;;;0.90;99.90;;;-0.23;100.00;95874.16;5039378;28;20007;-58
2022/12/09 10:07:40;;;;;;;;;;;0.90;99.90;;;-0.23;100.00;95859.44;5056077;28;20327;-58
2022/12/09 10:10:19;;;;;;;;;;;0.90;99.90;;;0.00;100.00;95873.69;5058100;28;20031;-58
2022/12/09 10:12:58;;;;;;;;;;;1.00;99.90;;;0.10;100.00;95864.00;5036801;28;19915;-58
2022/12/09 10:15:34;;;;;;;;;;;1.10;99.90;;;0.24;100.00;95863.72;5039457;28;19938;-58
2022/12/09 10:18:09;;;;;;;;;;;1.20;99.90;;;0.35;100.00;95851.34;5039384;28;19915;-58
2022/12/09 10:20:35;;;;;;;;;;;1.40;99.90;;;0.33;100.00;95832.41;5030802;28;19920;-58
2022/12/09 10:23:03;;;;;;;;;;;1.50;99.90;;;0.54;100.00;95852.66;5046969;28;19935;-58
2022/12/09 10:25:34;;;;;;;;;;;1.60;99.90;;;0.63;100.00;95854.22;5053238;28;19920;-58
2022/12/09 10:28:08;;;;;;;;;;;1.60;99.90;;;0.64;100.00;95868.03;5041726;28;20300;-56
2022/12/09 10:30:33;;;;;;;;;;;1.60;99.90;;;0.63;100.00;95863.72;5085749;22;19931;-43
2022/12/09 10:32:59;;;;;;;;;;;1.70;99.90;;;0.34;100.00;95836.69;5062376;28;19916;-45
2022/12/09 10:35:27;;;;;;;;;;;1.60;99.90;;;0.45;100.00;95859.78;5077059;28;20379;-44
2022/12/09 10:37:55;;;;;;;;;;;1.60;99.90;;;0.43;100.00;95869.34;5078723;28;19920;-44
2022/12/09 10:40:25;;;;;;;;;;;1.50;99.90;;;0.40;100.00;95848.69;5046307;28;19946;-44
2022/12/09 10:45:48;;;;;;;;;;;1.40;99.90;;;0.32;100.00;95838.44;5059744;28;20063;-44
2022/12/09 10:48:31;;;;;;;;;;;1.30;99.90;;;0.29;100.00;95830.75;5059666;28;19908;-44
2022/12/09 10:50:59;;;;;;;;;;;1.30;99.90;;;0.36;100.00;95828.00;5055817;28;19934;-46
2022/12/09 10:53:26;;;;;;;;;;;1.40;99.90;;;0.21;100.00;95817.94;5060949;28;19943;-44
2022/12/09 10:55:54;;;;;;;;;;;1.40;99.90;;;0.24;100.00;95835.19;5044563;28;19908;-44
2022/12/09 10:58:22;;;;;;;;;;;1.30;99.90;;;0.28;100.00;95831.63;5040281;28;19919;-46
2022/12/09 11:01:07;;;;;;;;;;;1.30;99.90;;;0.26;100.00;95834.25;5053202;28;19919;-48
2022/12/09 11:03:37;;;;;;;;;;;1.30;99.90;;;0.21;100.00;95830.06;5037047;28;20009;-45
2022/12/09 11:06:14;;;;;;;;;;;1.30;99.90;;;0.16;100.00;95838.78;5058145;28;20214;-45
2022/12/09 11:08:40;;;;;;;;;;;1.30;99.90;;;0.16;100.00;95828.44;5049575;28;20010;-44
2022/12/09 11:11:06;;;;;;;;;;;1.20;99.90;;;0.19;100.00;95833.53;5059122;28;19927;-48
2022/12/09 11:13:37;;;;;;;;;;;1.20;99.90;;;0.23;100.00;95823.09;5060974;28;20335;-47
2022/12/09 11:16:06;;;;;;;;;;;1.30;99.90;;;0.30;100.00;95825.53;5055388;28;19912;-48
2022/12/09 11:18:39;;;;;;;;;;;1.30;99.90;;;0.34;100.00;95814.22;5055193;28;19920;-45